createdAt,value
2019-05-07T00:00:49.217Z,6.20
2019-05-07T00:03:19.255Z,6.00
2019-05-07T00:05:49.323Z,6.20
2019-05-07T00:08:19.195Z,6.63
2019-05-07T00:10:49.362Z,6.27
2019-05-07T00:13:19.380Z,6.67
2019-05-07T00:15:49.493Z,6.63
2019-05-07T00:18:19.520Z,6.90
2019-05-07T00:20:49.536Z,6.57
2019-05-07T00:23:19.552Z,7.00
2019-05-07T00:25:49.766Z,7.00
2019-05-07T00:28:19.272Z,6.90
2019-05-07T00:30:49.174Z,7.27
2019-05-07T00:33:19.223Z,8.00
2019-05-07T00:35:54.467Z,6.97
2019-05-07T00:38:26.190Z,7.07
2019-05-07T00:40:57.859Z,7.13
2019-05-07T00:43:29.092Z,8.50
2019-05-07T00:46:03.607Z,8.03
2019-05-07T00:48:33.699Z,8.27
2019-05-07T00:51:22.616Z,8.07
2019-05-07T00:53:53.030Z,7.90
2019-05-07T00:56:23.033Z,7.93
2019-05-07T00:58:53.252Z,7.77
2019-05-07T01:01:23.257Z,8.77
2019-05-07T01:03:53.527Z,8.17
2019-05-07T01:06:26.470Z,7.73
2019-05-07T01:08:55.488Z,8.53
2019-05-07T01:11:25.374Z,8.97
2019-05-07T01:13:55.495Z,9.23
2019-05-07T01:16:25.714Z,8.83
2019-05-07T01:18:55.938Z,8.87
2019-05-07T01:21:26.053Z,9.80
2019-05-07T01:23:56.096Z,9.90
2019-05-07T01:26:26.196Z,9.97
2019-05-07T01:28:58.980Z,10.17
2019-05-07T01:31:35.551Z,10.30
2019-05-07T01:34:07.200Z,10.60
2019-05-07T01:36:37.316Z,10.10
2019-05-07T01:39:07.515Z,10.07
2019-05-07T01:41:37.553Z,10.53
2019-05-07T01:44:07.649Z,9.27
2019-05-07T01:46:37.681Z,9.37
2019-05-07T01:49:07.783Z,9.70
2019-05-07T01:51:37.831Z,10.40
2019-05-07T01:54:08.037Z,9.97
2019-05-07T01:56:38.139Z,9.80
2019-05-07T01:59:08.375Z,9.33
2019-05-07T02:01:37.996Z,10.03
2019-05-07T02:04:09.735Z,8.43
2019-05-07T02:06:42.924Z,9.33
2019-05-07T02:09:14.677Z,8.67
2019-05-07T02:12:02.375Z,9.13
2019-05-07T02:14:33.111Z,9.20
2019-05-07T02:17:03.474Z,10.33
2019-05-07T02:19:33.512Z,9.47
2019-05-07T02:22:04.652Z,8.70
2019-05-07T02:24:34.799Z,10.20
2019-05-07T02:27:06.394Z,9.47
2019-05-07T02:29:38.204Z,9.53
2019-05-07T02:32:08.162Z,8.67
2019-05-07T02:34:38.390Z,8.83
2019-05-07T02:37:10.141Z,9.27
2019-05-07T02:39:53.954Z,9.03
2019-05-07T02:42:24.145Z,9.57
2019-05-07T02:45:08.251Z,9.27
2019-05-07T02:47:38.143Z,9.77
2019-05-07T02:50:26.506Z,9.77
2019-05-07T02:53:04.158Z,9.50
2019-05-07T02:55:44.049Z,9.90
2019-05-07T02:58:14.268Z,9.37
2019-05-07T03:00:44.494Z,9.63
2019-05-07T03:03:14.447Z,9.60
2019-05-07T03:05:44.473Z,10.03
2019-05-07T03:08:14.421Z,10.00
2019-05-07T03:10:44.633Z,11.70
2019-05-07T03:13:14.614Z,9.87
2019-05-07T03:15:44.877Z,10.60
2019-05-07T03:18:18.829Z,10.03
2019-05-07T03:20:53.562Z,9.47
2019-05-07T03:23:25.477Z,10.10
2019-05-07T03:26:04.150Z,9.47
2019-05-07T03:28:36.158Z,10.53
2019-05-07T03:31:16.025Z,9.70
2019-05-07T03:33:55.390Z,9.63
2019-05-07T03:36:26.173Z,9.87
2019-05-07T03:38:54.722Z,9.93
2019-05-07T03:41:26.501Z,10.40
2019-05-07T03:43:58.371Z,10.07
2019-05-07T03:46:28.409Z,9.43
2019-05-07T03:48:58.407Z,9.90
2019-05-07T03:51:28.312Z,10.40
2019-05-07T03:53:58.454Z,9.10
2019-05-07T03:56:28.542Z,10.27
2019-05-07T03:58:58.575Z,10.03
2019-05-07T04:01:28.695Z,9.60
2019-05-07T04:03:58.686Z,9.23
2019-05-07T04:06:28.813Z,10.47
2019-05-07T04:08:58.952Z,11.43
2019-05-07T04:11:29.157Z,11.07
2019-05-07T04:13:59.159Z,11.67
2019-05-07T04:16:29.139Z,10.23
2019-05-07T04:18:59.303Z,11.27
2019-05-07T04:21:28.875Z,10.20
2019-05-07T04:24:16.848Z,10.70
2019-05-07T04:26:57.294Z,9.40
2019-05-07T04:29:27.316Z,9.63
2019-05-07T04:31:57.640Z,9.23
2019-05-07T04:34:45.361Z,9.20
2019-05-07T04:37:15.891Z,8.53
2019-05-07T04:39:53.819Z,8.33
2019-05-07T04:42:24.640Z,8.03
2019-05-07T04:44:54.645Z,8.03
2019-05-07T04:47:38.356Z,8.50
2019-05-07T04:49:56.426Z,9.17
2019-05-07T04:52:37.491Z,7.23
2019-05-07T04:55:07.228Z,7.83
2019-05-07T04:57:37.116Z,7.17
2019-05-07T05:00:09.239Z,8.00
2019-05-07T05:02:53.179Z,7.30
2019-05-07T05:05:24.152Z,6.40
2019-05-07T05:07:54.165Z,6.90
2019-05-07T05:10:24.206Z,7.53
2019-05-07T05:12:54.612Z,8.20
2019-05-07T05:15:24.737Z,7.37
2019-05-07T05:17:54.798Z,7.57
2019-05-07T05:20:38.807Z,7.40
2019-05-07T05:23:13.737Z,6.70
2019-05-07T05:25:45.597Z,6.93
2019-05-07T05:28:16.310Z,6.10
2019-05-07T05:30:47.860Z,6.23
2019-05-07T05:33:17.893Z,5.47
2019-05-07T05:35:47.758Z,5.77
2019-05-07T05:38:18.797Z,6.20
2019-05-07T05:40:48.358Z,5.43
2019-05-07T05:43:19.681Z,7.03
2019-05-07T05:45:53.028Z,6.77
2019-05-07T05:48:22.601Z,6.27
2019-05-07T05:51:02.771Z,6.50
2019-05-07T05:53:34.805Z,6.70
2019-05-07T05:56:08.930Z,6.23
2019-05-07T05:58:48.958Z,6.10
2019-05-07T06:01:32.170Z,5.77
2019-05-07T06:04:06.919Z,5.43
2019-05-07T06:06:50.331Z,6.00
2019-05-07T06:09:32.791Z,6.13
2019-05-07T06:12:10.027Z,5.30
2019-05-07T06:14:54.787Z,5.90
2019-05-07T06:17:32.196Z,4.93
2019-05-07T06:20:22.418Z,5.60
2019-05-07T06:23:09.481Z,5.37
2019-05-07T06:25:42.554Z,5.67
2019-05-07T06:28:12.622Z,5.03
2019-05-07T06:30:43.248Z,4.90
2019-05-07T06:33:13.922Z,4.53
2019-05-07T06:35:43.970Z,4.30
2019-05-07T06:38:15.217Z,4.73
2019-05-07T06:40:59.149Z,3.53
2019-05-07T06:43:34.261Z,4.00
2019-05-07T06:46:05.433Z,3.90
2019-05-07T06:48:42.207Z,4.10
2019-05-07T06:51:06.579Z,3.80
2019-05-07T06:53:36.499Z,4.03
2019-05-07T06:56:06.110Z,3.77
2019-05-07T06:58:37.062Z,3.67
2019-05-07T07:01:23.960Z,3.63
2019-05-07T07:03:55.611Z,4.40
2019-05-07T07:06:33.001Z,4.77
2019-05-07T07:09:23.181Z,3.87
2019-05-07T07:11:54.755Z,4.37
2019-05-07T07:14:24.715Z,4.23
2019-05-07T07:16:55.284Z,4.10
2019-05-07T07:19:25.507Z,4.10
2019-05-07T07:21:55.110Z,4.17
2019-05-07T07:24:28.727Z,4.17
2019-05-07T07:27:02.393Z,3.93
2019-05-07T07:29:36.427Z,3.20
2019-05-07T07:32:07.598Z,3.10
2019-05-07T07:34:39.436Z,3.20
2019-05-07T07:37:31.877Z,2.70
2019-05-07T07:40:05.873Z,3.33
2019-05-07T07:42:36.001Z,3.23
2019-05-07T07:45:19.553Z,3.70
2019-05-07T07:47:49.540Z,2.77
2019-05-07T07:50:18.987Z,3.30
2019-05-07T07:52:48.565Z,3.80
2019-05-07T07:55:22.162Z,3.73
2019-05-07T07:57:56.361Z,4.60
2019-05-07T08:00:32.864Z,3.57
2019-05-07T08:03:04.141Z,4.23
2019-05-07T08:05:33.797Z,4.37
2019-05-07T08:08:03.813Z,3.50
2019-05-07T08:10:33.701Z,3.27
2019-05-07T08:13:03.811Z,2.87
2019-05-07T08:15:33.881Z,3.00
2019-05-07T08:18:03.671Z,3.27
2019-05-07T08:20:33.680Z,3.03
2019-05-07T08:23:03.591Z,3.30
2019-05-07T08:25:49.088Z,3.00
2019-05-07T08:28:22.870Z,3.17
2019-05-07T08:31:03.000Z,3.37
2019-05-07T08:33:51.823Z,3.17
2019-05-07T08:36:22.592Z,3.40
2019-05-07T08:38:56.337Z,4.43
2019-05-07T08:41:27.149Z,3.47
2019-05-07T08:44:10.724Z,3.40
2019-05-07T08:46:38.765Z,3.40
2019-05-07T08:49:15.590Z,3.50
2019-05-07T08:51:47.899Z,3.53
2019-05-07T08:54:17.410Z,3.33
2019-05-07T08:56:47.201Z,3.30
2019-05-07T08:59:17.330Z,3.70
2019-05-07T09:01:47.249Z,3.80
2019-05-07T09:04:17.198Z,3.13
2019-05-07T09:06:46.679Z,3.53
2019-05-07T09:09:17.097Z,4.27
2019-05-07T09:11:46.990Z,3.20
2019-05-07T09:14:16.901Z,3.53
2019-05-07T09:16:46.819Z,3.13
2019-05-07T09:19:16.740Z,2.90
2019-05-07T09:21:46.639Z,3.00
2019-05-07T09:24:16.670Z,3.77
2019-05-07T09:26:54.364Z,3.33
2019-05-07T09:29:44.049Z,2.70
2019-05-07T09:32:17.860Z,2.63
2019-05-07T09:34:49.599Z,2.37
2019-05-07T09:37:32.437Z,2.83
2019-05-07T09:40:02.869Z,2.83
2019-05-07T09:42:33.495Z,2.37
2019-05-07T09:45:04.409Z,2.93
2019-05-07T09:47:34.311Z,2.87
2019-05-07T09:50:08.088Z,2.60
2019-05-07T09:52:37.742Z,2.50
2019-05-07T09:55:16.439Z,2.37
2019-05-07T09:57:42.251Z,3.20
2019-05-07T10:00:12.579Z,3.03
2019-05-07T10:02:43.020Z,2.53
2019-05-07T10:05:13.548Z,2.83
2019-05-07T10:07:43.565Z,2.57
2019-05-07T10:10:13.879Z,2.50
2019-05-07T10:12:52.524Z,3.10
2019-05-07T10:15:23.848Z,3.37
2019-05-07T10:17:58.161Z,3.60
2019-05-07T10:20:28.537Z,3.50
2019-05-07T10:22:59.135Z,2.97
2019-05-07T10:25:32.711Z,4.17
2019-05-07T10:28:02.557Z,2.90
2019-05-07T10:30:32.232Z,3.00
2019-05-07T10:33:02.353Z,3.00
2019-05-07T10:35:33.743Z,3.37
2019-05-07T10:38:03.910Z,3.17
2019-05-07T10:40:33.839Z,3.80
2019-05-07T10:43:03.967Z,3.13
2019-05-07T10:45:38.468Z,3.37
2019-05-07T10:48:12.798Z,3.10
2019-05-07T10:50:51.730Z,3.33
2019-05-07T10:53:22.979Z,3.00
2019-05-07T10:55:54.207Z,3.20
2019-05-07T10:58:24.134Z,3.13
2019-05-07T11:00:55.258Z,3.33
2019-05-07T11:03:24.767Z,3.00
2019-05-07T11:05:54.568Z,3.00
2019-05-07T11:08:25.856Z,3.43
2019-05-07T11:10:55.949Z,3.20
2019-05-07T11:13:25.954Z,3.30
2019-05-07T11:15:56.978Z,4.10
2019-05-07T11:18:28.029Z,3.37
2019-05-07T11:20:57.440Z,3.23
2019-05-07T11:23:26.919Z,3.50
2019-05-07T11:25:56.852Z,3.97
2019-05-07T11:28:27.087Z,3.00
2019-05-07T11:30:57.089Z,3.03
2019-05-07T11:33:26.603Z,3.27
2019-05-07T11:35:56.623Z,2.93
2019-05-07T11:38:26.615Z,3.63
2019-05-07T11:40:56.736Z,3.00
2019-05-07T11:43:46.934Z,2.80
2019-05-07T11:46:24.897Z,3.43
2019-05-07T11:48:56.329Z,3.40
2019-05-07T11:51:30.308Z,3.50
2019-05-07T11:54:12.369Z,3.30
2019-05-07T11:56:42.401Z,3.10
2019-05-07T11:59:13.442Z,3.00
2019-05-07T12:01:47.916Z,3.23
2019-05-07T12:04:18.157Z,2.90
2019-05-07T12:06:48.521Z,3.00
2019-05-07T12:09:18.528Z,3.13
2019-05-07T12:11:48.526Z,3.50
2019-05-07T12:14:28.885Z,3.17
2019-05-07T12:16:51.295Z,3.60
2019-05-07T12:19:22.638Z,3.30
2019-05-07T12:21:53.135Z,3.13
2019-05-07T12:24:24.148Z,2.93
2019-05-07T12:26:54.365Z,3.50
2019-05-07T12:29:23.996Z,2.60
2019-05-07T12:32:12.120Z,3.53
2019-05-07T12:34:49.904Z,2.83
2019-05-07T12:37:19.932Z,3.37
2019-05-07T12:39:49.464Z,3.43
2019-05-07T12:42:19.440Z,2.90
2019-05-07T12:44:49.344Z,2.60
2019-05-07T12:47:19.280Z,2.70
2019-05-07T12:49:49.212Z,3.30
2019-05-07T12:52:22.642Z,2.87
2019-05-07T12:54:56.144Z,2.60
2019-05-07T12:57:25.984Z,3.00
2019-05-07T12:59:57.535Z,3.07
2019-05-07T13:02:40.799Z,2.83
2019-05-07T13:05:07.281Z,2.70
2019-05-07T13:07:38.853Z,2.40
2019-05-07T13:10:09.140Z,2.57
2019-05-07T13:12:39.433Z,2.40
2019-05-07T13:15:23.512Z,1.90
2019-05-07T13:17:41.705Z,2.23
2019-05-07T13:20:12.173Z,1.73
2019-05-07T13:22:42.742Z,2.27
2019-05-07T13:25:13.173Z,1.70
2019-05-07T13:27:43.082Z,1.83
2019-05-07T13:30:14.221Z,2.03
2019-05-07T13:32:48.163Z,1.33
2019-05-07T13:35:17.834Z,2.20
2019-05-07T13:37:49.066Z,2.20
2019-05-07T13:40:31.573Z,1.90
2019-05-07T13:43:19.214Z,1.80
2019-05-07T13:45:56.896Z,2.03
2019-05-07T13:48:27.705Z,2.70
2019-05-07T13:50:57.754Z,2.63
2019-05-07T13:53:27.800Z,2.30
2019-05-07T13:55:58.387Z,2.57
2019-05-07T13:58:28.508Z,3.23
2019-05-07T14:01:11.959Z,2.63
2019-05-07T14:03:41.260Z,2.73
2019-05-07T14:06:12.769Z,1.87
2019-05-07T14:08:43.951Z,2.07
2019-05-07T14:11:14.948Z,1.90
2019-05-07T14:13:44.976Z,2.40
2019-05-07T14:16:15.165Z,2.20
2019-05-07T14:18:45.016Z,2.43
2019-05-07T14:21:14.544Z,1.90
2019-05-07T14:23:44.445Z,1.60
2019-05-07T14:26:14.309Z,2.40
2019-05-07T14:28:44.393Z,2.10
2019-05-07T14:31:14.078Z,2.03
2019-05-07T14:33:48.510Z,2.50
2019-05-07T14:36:22.289Z,2.10
2019-05-07T14:38:55.402Z,2.50
2019-05-07T14:41:25.691Z,2.43
2019-05-07T14:44:14.374Z,2.13
2019-05-07T14:46:50.901Z,2.50
2019-05-07T14:49:17.074Z,2.33
2019-05-07T14:51:47.182Z,1.80
2019-05-07T14:54:18.377Z,1.77
2019-05-07T14:56:48.764Z,2.03
2019-05-07T14:59:20.017Z,2.50
2019-05-07T15:01:52.096Z,2.70
2019-05-07T15:04:22.153Z,2.97
2019-05-07T15:06:52.299Z,2.40
2019-05-07T15:09:22.515Z,2.20
2019-05-07T15:11:52.723Z,3.60
2019-05-07T15:14:22.947Z,4.57
2019-05-07T15:16:54.552Z,3.43
2019-05-07T15:19:24.522Z,2.60
2019-05-07T15:21:55.766Z,3.27
2019-05-07T15:24:25.384Z,4.57
2019-05-07T15:26:57.853Z,2.40
2019-05-07T15:29:28.997Z,3.50
2019-05-07T15:32:03.346Z,3.30
2019-05-07T15:34:39.397Z,6.43
2019-05-07T15:37:12.138Z,6.80
2019-05-07T15:39:42.151Z,7.23
2019-05-07T15:42:12.427Z,6.07
2019-05-07T15:44:43.198Z,4.47
2019-05-07T15:47:18.671Z,4.43
2019-05-07T15:49:49.395Z,3.43
2019-05-07T15:52:22.182Z,4.40
2019-05-07T15:54:52.876Z,3.77
2019-05-07T15:57:27.113Z,3.53
2019-05-07T16:00:07.472Z,3.63
2019-05-07T16:02:47.534Z,3.13
2019-05-07T16:05:17.424Z,2.20
2019-05-07T16:07:49.114Z,2.33
2019-05-07T16:10:23.011Z,2.27
2019-05-07T16:12:53.164Z,6.67
2019-05-07T16:15:24.154Z,5.43
2019-05-07T16:17:55.422Z,6.03
2019-05-07T16:20:25.622Z,4.53
2019-05-07T16:23:14.032Z,2.10
2019-05-07T16:25:34.797Z,2.30
2019-05-07T16:28:04.908Z,2.90
2019-05-07T16:30:37.782Z,3.47
2019-05-07T16:33:08.061Z,2.50
2019-05-07T16:35:38.105Z,3.63
2019-05-07T16:38:07.729Z,4.20
2019-05-07T16:40:37.211Z,3.17
2019-05-07T16:43:06.774Z,2.27
2019-05-07T16:45:36.233Z,2.80
2019-05-07T16:48:06.240Z,2.40
2019-05-07T16:50:36.263Z,2.93
2019-05-07T16:53:06.347Z,2.83
2019-05-07T16:55:36.938Z,3.10
2019-05-07T16:58:08.958Z,2.90
2019-05-07T17:00:42.127Z,2.20
2019-05-07T17:03:13.287Z,3.50
2019-05-07T17:05:43.322Z,3.83
2019-05-07T17:08:14.950Z,5.73
2019-05-07T17:10:45.818Z,3.00
2019-05-07T17:13:15.426Z,2.83
2019-05-07T17:15:55.650Z,2.10
2019-05-07T17:18:27.206Z,2.07
2019-05-07T17:20:58.853Z,2.00
2019-05-07T17:23:42.843Z,2.03
2019-05-07T17:26:00.438Z,2.93
2019-05-07T17:28:31.976Z,2.47
2019-05-07T17:31:03.051Z,2.80
2019-05-07T17:33:33.552Z,3.00
2019-05-07T17:36:03.157Z,3.03
2019-05-07T17:38:33.275Z,3.57
2019-05-07T17:41:10.823Z,2.83
2019-05-07T17:43:35.341Z,4.03
2019-05-07T17:46:05.318Z,4.17
2019-05-07T17:48:34.973Z,4.90
2019-05-07T17:51:06.129Z,5.17
2019-05-07T17:53:36.034Z,5.53
2019-05-07T17:56:06.051Z,4.90
2019-05-07T17:58:36.164Z,5.87
2019-05-07T18:01:09.502Z,5.40
2019-05-07T18:03:42.812Z,5.50
2019-05-07T18:06:13.581Z,6.10
2019-05-07T18:08:43.927Z,5.97
2019-05-07T18:11:20.967Z,6.50
2019-05-07T18:13:45.567Z,7.37
2019-05-07T18:16:17.126Z,7.00
2019-05-07T18:18:47.155Z,8.70
2019-05-07T18:21:17.472Z,7.27
2019-05-07T18:23:46.975Z,7.70
2019-05-07T18:26:28.058Z,7.90
2019-05-07T18:28:48.442Z,7.50
2019-05-07T18:31:22.013Z,6.90
2019-05-07T18:33:56.443Z,6.63
2019-05-07T18:36:26.479Z,7.73
2019-05-07T18:38:56.074Z,9.23
2019-05-07T18:41:26.093Z,11.23
2019-05-07T18:44:08.203Z,13.43
2019-05-07T18:46:27.763Z,14.33
2019-05-07T18:48:57.272Z,14.20
2019-05-07T18:51:26.836Z,14.67
2019-05-07T18:53:56.791Z,14.80
2019-05-07T18:56:26.793Z,13.07
2019-05-07T18:58:56.820Z,12.30
2019-05-07T19:01:30.111Z,13.03
2019-05-07T19:04:01.932Z,20.73
2019-05-07T19:06:32.007Z,25.83
2019-05-07T19:09:01.727Z,27.27
2019-05-07T19:11:33.326Z,23.23
2019-05-07T19:14:03.450Z,23.17
2019-05-07T19:16:33.385Z,21.63
2019-05-07T19:19:04.329Z,19.93
2019-05-07T19:21:34.588Z,20.13
2019-05-07T19:24:04.447Z,17.67
2019-05-07T19:26:34.447Z,16.87
2019-05-07T19:29:05.298Z,15.07
2019-05-07T19:31:34.808Z,15.37
2019-05-07T19:34:04.871Z,14.80
2019-05-07T19:36:34.810Z,16.73
2019-05-07T19:39:08.075Z,16.27
2019-05-07T19:41:38.649Z,14.87
2019-05-07T19:44:08.768Z,14.27
2019-05-07T19:46:38.672Z,14.60
2019-05-07T19:49:08.693Z,13.73
2019-05-07T19:51:38.568Z,14.23
2019-05-07T19:54:08.629Z,15.57
2019-05-07T19:56:39.566Z,15.67
2019-05-07T19:59:09.579Z,15.13
2019-05-07T20:01:42.563Z,15.60
2019-05-07T20:04:14.118Z,15.63
2019-05-07T20:06:45.561Z,18.80
2019-05-07T20:09:22.197Z,18.87
2019-05-07T20:11:52.425Z,20.07
2019-05-07T20:14:22.566Z,18.40
2019-05-07T20:16:53.138Z,17.60
2019-05-07T20:19:24.961Z,17.10
2019-05-07T20:21:54.876Z,18.37
2019-05-07T20:24:24.779Z,20.87
2019-05-07T20:26:54.704Z,22.70
2019-05-07T20:29:25.037Z,22.27
2019-05-07T20:31:55.046Z,23.17
2019-05-07T20:34:25.158Z,25.27
2019-05-07T20:36:55.269Z,21.77
2019-05-07T20:39:25.502Z,21.37
2019-05-07T20:41:55.709Z,21.83
2019-05-07T20:44:25.429Z,19.70
2019-05-07T20:46:55.439Z,21.00
2019-05-07T20:49:25.551Z,19.13
2019-05-07T20:51:55.569Z,18.90
2019-05-07T20:54:27.219Z,18.73
2019-05-07T20:57:17.201Z,17.43
2019-05-07T20:59:47.230Z,16.20
2019-05-07T21:02:17.129Z,16.20
2019-05-07T21:04:47.164Z,16.50
2019-05-07T21:07:17.068Z,18.80
2019-05-07T21:09:46.989Z,17.57
2019-05-07T21:12:16.499Z,17.37
2019-05-07T21:14:46.279Z,19.30
2019-05-07T21:17:16.209Z,20.80
2019-05-07T21:19:46.237Z,21.37
2019-05-07T21:22:16.413Z,20.57
2019-05-07T21:24:46.971Z,21.03
2019-05-07T21:27:16.784Z,20.13
2019-05-07T21:29:46.582Z,20.80
2019-05-07T21:32:16.709Z,19.27
2019-05-07T21:34:46.720Z,20.20
2019-05-07T21:37:16.629Z,21.17
2019-05-07T21:39:46.542Z,19.40
2019-05-07T21:42:16.572Z,19.43
2019-05-07T21:44:46.584Z,18.53
2019-05-07T21:47:16.189Z,19.93
2019-05-07T21:49:46.108Z,19.13
2019-05-07T21:52:16.009Z,19.03
2019-05-07T21:54:47.570Z,22.00
2019-05-07T21:57:24.449Z,19.50
2019-05-07T21:59:55.879Z,18.73
2019-05-07T22:02:26.009Z,19.73
2019-05-07T22:04:55.933Z,19.17
2019-05-07T22:07:25.953Z,20.30
2019-05-07T22:09:55.854Z,20.60
2019-05-07T22:12:26.047Z,19.40
2019-05-07T22:14:56.098Z,20.97
2019-05-07T22:17:26.082Z,19.53
2019-05-07T22:19:56.102Z,19.83
2019-05-07T22:22:26.247Z,21.90
2019-05-07T22:24:56.255Z,22.50
2019-05-07T22:27:27.896Z,21.77
2019-05-07T22:29:58.147Z,20.90
2019-05-07T22:32:43.919Z,21.77
2019-05-07T22:35:18.056Z,22.23
2019-05-07T22:37:49.198Z,23.20
2019-05-07T22:40:23.400Z,22.53
2019-05-07T22:42:54.954Z,23.07
2019-05-07T22:45:25.055Z,22.23
2019-05-07T22:47:55.284Z,22.60
2019-05-07T22:50:25.386Z,21.47
2019-05-07T22:52:56.532Z,22.40
2019-05-07T22:55:26.739Z,20.73
2019-05-07T22:58:04.446Z,20.93
2019-05-07T23:00:36.207Z,21.60
2019-05-07T23:03:05.905Z,23.57
2019-05-07T23:05:35.949Z,21.37
2019-05-07T23:08:06.046Z,20.90
2019-05-07T23:10:35.951Z,22.60
2019-05-07T23:13:06.078Z,22.13
2019-05-07T23:15:36.424Z,20.13
2019-05-07T23:18:07.744Z,21.50
2019-05-07T23:20:37.969Z,20.53
2019-05-07T23:23:07.955Z,20.30
2019-05-07T23:25:37.910Z,19.63
2019-05-07T23:28:07.982Z,19.20
2019-05-07T23:30:38.014Z,20.33
2019-05-07T23:33:08.150Z,20.33
2019-05-07T23:35:38.259Z,21.23
2019-05-07T23:38:11.768Z,23.83
2019-05-07T23:40:58.261Z,22.70
2019-05-07T23:43:28.483Z,22.50
2019-05-07T23:45:58.696Z,23.17
2019-05-07T23:48:28.769Z,22.70
2019-05-07T23:50:58.745Z,22.63
2019-05-07T23:53:28.832Z,23.50
2019-05-07T23:55:59.078Z,22.03
2019-05-07T23:58:28.936Z,24.10
